sensor_id;sensor_type;location;lat;lon;timestamp;P1;durP1;ratioP1;P2;durP2;ratioP2
18013;SDS011;9132;47.946;10.394;2023-08-12T00:00:51;4.88;;;3.90;;
18013;SDS011;9132;47.946;10.394;2023-08-12T00:03:17;6.05;;;4.38;;
18013;SDS011;9132;47.946;10.394;2023-08-12T00:05:44;4.15;;;3.58;;
18013;SDS011;9132;47.946;10.394;2023-08-12T00:08:11;5.35;;;3.78;;
18013;SDS011;9132;47.946;10.394;2023-08-12T00:10:37;3.90;;;3.58;;
18013;SDS011;9132;47.946;10.394;2023-08-12T00:13:03;4.22;;;3.90;;
18013;SDS011;9132;47.946;10.394;2023-08-12T00:15:31;4.38;;;3.97;;
18013;SDS011;9132;47.946;10.394;2023-08-12T00:17:57;3.92;;;3.40;;
18013;SDS011;9132;47.946;10.394;2023-08-12T00:20:24;5.15;;;3.85;;
18013;SDS011;9132;47.946;10.394;2023-08-12T00:22:50;4.07;;;3.78;;
18013;SDS011;9132;47.946;10.394;2023-08-12T00:25:17;3.83;;;3.50;;
18013;SDS011;9132;47.946;10.394;2023-08-12T00:27:43;4.45;;;4.03;;
18013;SDS011;9132;47.946;10.394;2023-08-12T00:30:09;3.80;;;3.30;;
18013;SDS011;9132;47.946;10.394;2023-08-12T00:32:37;6.53;;;4.20;;
18013;SDS011;9132;47.946;10.394;2023-08-12T00:35:04;5.35;;;3.90;;
18013;SDS011;9132;47.946;10.394;2023-08-12T00:37:30;4.22;;;3.50;;
18013;SDS011;9132;47.946;10.394;2023-08-12T00:39:56;4.10;;;3.70;;
18013;SDS011;9132;47.946;10.394;2023-08-12T00:42:23;5.15;;;3.95;;
18013;SDS011;9132;47.946;10.394;2023-08-12T00:44:49;4.20;;;3.60;;
18013;SDS011;9132;47.946;10.394;2023-08-12T00:47:15;4.38;;;3.88;;
18013;SDS011;9132;47.946;10.394;2023-08-12T00:49:44;3.70;;;3.40;;
18013;SDS011;9132;47.946;10.394;2023-08-12T00:52:10;4.57;;;3.20;;
18013;SDS011;9132;47.946;10.394;2023-08-12T00:54:37;4.40;;;3.53;;
18013;SDS011;9132;47.946;10.394;2023-08-12T00:57:03;4.30;;;3.90;;
18013;SDS011;9132;47.946;10.394;2023-08-12T00:59:30;5.90;;;3.88;;
18013;SDS011;9132;47.946;10.394;2023-08-12T01:01:56;4.60;;;3.65;;
18013;SDS011;9132;47.946;10.394;2023-08-12T01:04:22;3.85;;;3.45;;
18013;SDS011;9132;47.946;10.394;2023-08-12T01:06:50;4.28;;;3.88;;
18013;SDS011;9132;47.946;10.394;2023-08-12T01:09:17;3.78;;;3.40;;
18013;SDS011;9132;47.946;10.394;2023-08-12T01:11:45;6.28;;;3.78;;
18013;SDS011;9132;47.946;10.394;2023-08-12T01:14:14;4.68;;;3.80;;
18013;SDS011;9132;47.946;10.394;2023-08-12T01:16:43;5.47;;;3.42;;
18013;SDS011;9132;47.946;10.394;2023-08-12T01:19:21;4.10;;;3.70;;
18013;SDS011;9132;47.946;10.394;2023-08-12T01:21:51;4.40;;;4.00;;
18013;SDS011;9132;47.946;10.394;2023-08-12T01:24:20;4.68;;;3.85;;
18013;SDS011;9132;47.946;10.394;2023-08-12T01:26:47;5.32;;;3.97;;
18013;SDS011;9132;47.946;10.394;2023-08-12T01:29:14;4.18;;;3.63;;
18013;SDS011;9132;47.946;10.394;2023-08-12T01:31:41;4.72;;;4.00;;
18013;SDS011;9132;47.946;10.394;2023-08-12T01:34:12;4.47;;;3.60;;
18013;SDS011;9132;47.946;10.394;2023-08-12T01:36:38;4.25;;;3.85;;
18013;SDS011;9132;47.946;10.394;2023-08-12T01:39:06;4.35;;;3.95;;
18013;SDS011;9132;47.946;10.394;2023-08-12T01:41:36;5.18;;;3.83;;
18013;SDS011;9132;47.946;10.394;2023-08-12T01:44:03;4.78;;;4.38;;
18013;SDS011;9132;47.946;10.394;2023-08-12T01:46:29;4.30;;;3.72;;
18013;SDS011;9132;47.946;10.394;2023-08-12T01:48:57;4.30;;;3.90;;
18013;SDS011;9132;47.946;10.394;2023-08-12T01:51:23;4.47;;;4.10;;
18013;SDS011;9132;47.946;10.394;2023-08-12T01:53:49;8.43;;;4.43;;
18013;SDS011;9132;47.946;10.394;2023-08-12T01:56:16;5.70;;;4.32;;
18013;SDS011;9132;47.946;10.394;2023-08-12T01:58:43;5.43;;;4.30;;
18013;SDS011;9132;47.946;10.394;2023-08-12T02:01:10;5.43;;;4.93;;
18013;SDS011;9132;47.946;10.394;2023-08-12T02:03:36;4.75;;;4.10;;
18013;SDS011;9132;47.946;10.394;2023-08-12T02:06:03;4.22;;;3.78;;
18013;SDS011;9132;47.946;10.394;2023-08-12T02:08:30;4.28;;;3.97;;
18013;SDS011;9132;47.946;10.394;2023-08-12T02:10:56;4.38;;;4.00;;
18013;SDS011;9132;47.946;10.394;2023-08-12T02:13:22;5.85;;;4.20;;
18013;SDS011;9132;47.946;10.394;2023-08-12T02:15:50;4.70;;;3.80;;
18013;SDS011;9132;47.946;10.394;2023-08-12T02:18:16;4.85;;;4.05;;
18013;SDS011;9132;47.946;10.394;2023-08-12T02:20:43;4.60;;;4.20;;
18013;SDS011;9132;47.946;10.394;2023-08-12T02:23:09;4.30;;;3.97;;
18013;SDS011;9132;47.946;10.394;2023-08-12T02:25:35;4.57;;;4.18;;
18013;SDS011;9132;47.946;10.394;2023-08-12T02:28:02;5.32;;;4.00;;
18013;SDS011;9132;47.946;10.394;2023-08-12T02:30:28;4.05;;;3.72;;
18013;SDS011;9132;47.946;10.394;2023-08-12T02:32:56;4.55;;;4.18;;
18013;SDS011;9132;47.946;10.394;2023-08-12T02:35:22;4.90;;;4.15;;
18013;SDS011;9132;47.946;10.394;2023-08-12T02:37:49;5.43;;;4.10;;
18013;SDS011;9132;47.946;10.394;2023-08-12T02:40:15;4.13;;;3.75;;
18013;SDS011;9132;47.946;10.394;2023-08-12T02:42:41;4.95;;;4.07;;
18013;SDS011;9132;47.946;10.394;2023-08-12T02:45:08;4.28;;;3.88;;
18013;SDS011;9132;47.946;10.394;2023-08-12T02:47:34;4.50;;;4.10;;
18013;SDS011;9132;47.946;10.394;2023-08-12T02:50:02;4.22;;;3.85;;
18013;SDS011;9132;47.946;10.394;2023-08-12T02:52:29;5.18;;;3.78;;
18013;SDS011;9132;47.946;10.394;2023-08-12T02:54:55;3.88;;;3.58;;
18013;SDS011;9132;47.946;10.394;2023-08-12T02:57:21;4.60;;;3.90;;
18013;SDS011;9132;47.946;10.394;2023-08-12T02:59:48;4.57;;;4.18;;
18013;SDS011;9132;47.946;10.394;2023-08-12T03:02:14;4.30;;;3.90;;
18013;SDS011;9132;47.946;10.394;2023-08-12T03:04:41;4.40;;;3.80;;
18013;SDS011;9132;47.946;10.394;2023-08-12T03:07:08;4.47;;;3.72;;
18013;SDS011;9132;47.946;10.394;2023-08-12T03:09:35;4.43;;;4.03;;
18013;SDS011;9132;47.946;10.394;2023-08-12T03:12:01;4.15;;;3.75;;
18013;SDS011;9132;47.946;10.394;2023-08-12T03:14:28;4.45;;;4.05;;
18013;SDS011;9132;47.946;10.394;2023-08-12T03:16:55;4.43;;;4.00;;
18013;SDS011;9132;47.946;10.394;2023-08-12T03:19:22;4.53;;;4.13;;
18013;SDS011;9132;47.946;10.394;2023-08-12T03:21:48;7.57;;;4.13;;
18013;SDS011;9132;47.946;10.394;2023-08-12T03:24:16;4.82;;;4.32;;
18013;SDS011;9132;47.946;10.394;2023-08-12T03:26:42;4.85;;;3.97;;
18013;SDS011;9132;47.946;10.394;2023-08-12T03:29:08;5.45;;;4.03;;
18013;SDS011;9132;47.946;10.394;2023-08-12T03:31:34;3.80;;;3.50;;
18013;SDS011;9132;47.946;10.394;2023-08-12T03:34:01;5.30;;;3.90;;
18013;SDS011;9132;47.946;10.394;2023-08-12T03:36:27;4.80;;;4.25;;
18013;SDS011;9132;47.946;10.394;2023-08-12T03:38:53;4.07;;;3.78;;
18013;SDS011;9132;47.946;10.394;2023-08-12T03:41:21;4.50;;;4.10;;
18013;SDS011;9132;47.946;10.394;2023-08-12T03:43:47;4.30;;;3.90;;
18013;SDS011;9132;47.946;10.394;2023-08-12T03:46:15;5.07;;;4.00;;
18013;SDS011;9132;47.946;10.394;2023-08-12T03:48:42;4.30;;;3.90;;
18013;SDS011;9132;47.946;10.394;2023-08-12T03:51:08;4.57;;;3.95;;
18013;SDS011;9132;47.946;10.394;2023-08-12T03:53:34;3.92;;;3.63;;
18013;SDS011;9132;47.946;10.394;2023-08-12T03:56:01;3.83;;;3.53;;
18013;SDS011;9132;47.946;10.394;2023-08-12T03:58:28;4.07;;;3.78;;
18013;SDS011;9132;47.946;10.394;2023-08-12T04:00:55;4.05;;;3.65;;
18013;SDS011;9132;47.946;10.394;2023-08-12T04:03:21;3.78;;;3.47;;
18013;SDS011;9132;47.946;10.394;2023-08-12T04:05:48;4.03;;;3.63;;
18013;SDS011;9132;47.946;10.394;2023-08-12T04:08:15;3.88;;;3.58;;
18013;SDS011;9132;47.946;10.394;2023-08-12T04:10:44;4.57;;;3.70;;
18013;SDS011;9132;47.946;10.394;2023-08-12T04:13:10;3.67;;;3.38;;
18013;SDS011;9132;47.946;10.394;2023-08-12T04:15:38;4.07;;;3.67;;
18013;SDS011;9132;47.946;10.394;2023-08-12T04:18:04;4.72;;;4.13;;
18013;SDS011;9132;47.946;10.394;2023-08-12T04:20:31;3.40;;;3.10;;
18013;SDS011;9132;47.946;10.394;2023-08-12T04:22:57;3.95;;;3.58;;
18013;SDS011;9132;47.946;10.394;2023-08-12T04:25:23;4.22;;;3.80;;
18013;SDS011;9132;47.946;10.394;2023-08-12T04:27:50;4.40;;;4.00;;
18013;SDS011;9132;47.946;10.394;2023-08-12T04:30:16;4.00;;;3.60;;
18013;SDS011;9132;47.946;10.394;2023-08-12T04:32:44;5.38;;;3.80;;
18013;SDS011;9132;47.946;10.394;2023-08-12T04:35:10;5.95;;;3.38;;
18013;SDS011;9132;47.946;10.394;2023-08-12T04:37:37;4.80;;;3.95;;
18013;SDS011;9132;47.946;10.394;2023-08-12T04:40:03;5.53;;;3.60;;
18013;SDS011;9132;47.946;10.394;2023-08-12T04:42:32;3.70;;;3.40;;
18013;SDS011;9132;47.946;10.394;2023-08-12T04:44:58;4.38;;;3.33;;
18013;SDS011;9132;47.946;10.394;2023-08-12T04:47:24;4.20;;;3.90;;
18013;SDS011;9132;47.946;10.394;2023-08-12T04:49:52;4.10;;;3.70;;
18013;SDS011;9132;47.946;10.394;2023-08-12T04:52:19;4.20;;;3.50;;
18013;SDS011;9132;47.946;10.394;2023-08-12T04:54:45;4.68;;;3.42;;
18013;SDS011;9132;47.946;10.394;2023-08-12T04:57:12;4.75;;;3.78;;
18013;SDS011;9132;47.946;10.394;2023-08-12T04:59:38;3.45;;;3.15;;
18013;SDS011;9132;47.946;10.394;2023-08-12T05:02:04;5.38;;;3.20;;
18013;SDS011;9132;47.946;10.394;2023-08-12T05:04:31;3.85;;;3.35;;
18013;SDS011;9132;47.946;10.394;2023-08-12T05:06:58;3.85;;;3.45;;
18013;SDS011;9132;47.946;10.394;2023-08-12T05:09:25;3.80;;;3.40;;
18013;SDS011;9132;47.946;10.394;2023-08-12T05:11:51;4.88;;;3.50;;
18013;SDS011;9132;47.946;10.394;2023-08-12T05:14:17;3.97;;;3.33;;
18013;SDS011;9132;47.946;10.394;2023-08-12T05:16:44;4.00;;;3.10;;
18013;SDS011;9132;47.946;10.394;2023-08-12T05:19:10;3.60;;;3.15;;
18013;SDS011;9132;47.946;10.394;2023-08-12T05:21:36;3.75;;;3.38;;
18013;SDS011;9132;47.946;10.394;2023-08-12T05:24:04;3.88;;;3.53;;
18013;SDS011;9132;47.946;10.394;2023-08-12T05:28:57;3.47;;;3.10;;
18013;SDS011;9132;47.946;10.394;2023-08-12T05:31:24;3.33;;;2.97;;
18013;SDS011;9132;47.946;10.394;2023-08-12T05:33:50;4.50;;;3.03;;
18013;SDS011;9132;47.946;10.394;2023-08-12T05:36:17;3.40;;;3.10;;
18013;SDS011;9132;47.946;10.394;2023-08-12T05:38:43;5.00;;;3.00;;
18013;SDS011;9132;47.946;10.394;2023-08-12T05:41:11;3.00;;;2.80;;
18013;SDS011;9132;47.946;10.394;2023-08-12T05:43:37;3.33;;;3.00;;
18013;SDS011;9132;47.946;10.394;2023-08-12T05:46:03;3.80;;;2.92;;
18013;SDS011;9132;47.946;10.394;2023-08-12T05:48:30;3.30;;;3.03;;
18013;SDS011;9132;47.946;10.394;2023-08-12T05:50:56;3.53;;;3.22;;
18013;SDS011;9132;47.946;10.394;2023-08-12T05:53:22;3.58;;;3.05;;
18013;SDS011;9132;47.946;10.394;2023-08-12T05:55:49;3.38;;;3.00;;
18013;SDS011;9132;47.946;10.394;2023-08-12T05:58:16;5.28;;;3.20;;
18013;SDS011;9132;47.946;10.394;2023-08-12T06:00:43;4.13;;;2.88;;
18013;SDS011;9132;47.946;10.394;2023-08-12T06:03:10;2.70;;;2.50;;
18013;SDS011;9132;47.946;10.394;2023-08-12T06:05:36;3.35;;;2.88;;
18013;SDS011;9132;47.946;10.394;2023-08-12T06:08:03;3.80;;;3.20;;
18013;SDS011;9132;47.946;10.394;2023-08-12T06:10:29;3.05;;;2.67;;
18013;SDS011;9132;47.946;10.394;2023-08-12T06:12:56;2.78;;;2.58;;
18013;SDS011;9132;47.946;10.394;2023-08-12T06:15:23;2.28;;;2.17;;
18013;SDS011;9132;47.946;10.394;2023-08-12T06:17:50;3.17;;;2.90;;
18013;SDS011;9132;47.946;10.394;2023-08-12T06:20:16;3.33;;;2.92;;
18013;SDS011;9132;47.946;10.394;2023-08-12T06:22:42;4.85;;;2.65;;
18013;SDS011;9132;47.946;10.394;2023-08-12T06:25:09;3.08;;;2.78;;
18013;SDS011;9132;47.946;10.394;2023-08-12T06:27:35;3.13;;;2.40;;
18013;SDS011;9132;47.946;10.394;2023-08-12T06:30:01;4.03;;;3.10;;
18013;SDS011;9132;47.946;10.394;2023-08-12T06:32:29;2.90;;;2.70;;
18013;SDS011;9132;47.946;10.394;2023-08-12T06:34:55;2.72;;;2.50;;
18013;SDS011;9132;47.946;10.394;2023-08-12T06:37:22;3.63;;;2.63;;
18013;SDS011;9132;47.946;10.394;2023-08-12T06:39:48;3.33;;;2.65;;
18013;SDS011;9132;47.946;10.394;2023-08-12T06:42:14;3.10;;;2.80;;
18013;SDS011;9132;47.946;10.394;2023-08-12T06:44:41;5.05;;;2.85;;
18013;SDS011;9132;47.946;10.394;2023-08-12T06:47:07;3.58;;;3.08;;
18013;SDS011;9132;47.946;10.394;2023-08-12T06:49:35;3.08;;;2.80;;
18013;SDS011;9132;47.946;10.394;2023-08-12T06:52:01;3.90;;;3.00;;
18013;SDS011;9132;47.946;10.394;2023-08-12T06:54:28;3.65;;;2.83;;
18013;SDS011;9132;47.946;10.394;2023-08-12T06:56:54;3.28;;;2.60;;
18013;SDS011;9132;47.946;10.394;2023-08-12T06:59:20;3.00;;;2.70;;
18013;SDS011;9132;47.946;10.394;2023-08-12T07:01:47;2.60;;;2.38;;
18013;SDS011;9132;47.946;10.394;2023-08-12T07:04:13;2.92;;;2.72;;
18013;SDS011;9132;47.946;10.394;2023-08-12T07:06:41;5.15;;;2.95;;
18013;SDS011;9132;47.946;10.394;2023-08-12T07:09:07;3.47;;;2.60;;
18013;SDS011;9132;47.946;10.394;2023-08-12T07:11:33;2.63;;;2.42;;
18013;SDS011;9132;47.946;10.394;2023-08-12T07:14:00;2.92;;;2.55;;
18013;SDS011;9132;47.946;10.394;2023-08-12T07:16:26;3.63;;;2.90;;
18013;SDS011;9132;47.946;10.394;2023-08-12T07:18:52;4.32;;;2.70;;
18013;SDS011;9132;47.946;10.394;2023-08-12T07:21:18;3.38;;;2.80;;
18013;SDS011;9132;47.946;10.394;2023-08-12T07:23:46;3.38;;;2.38;;
18013;SDS011;9132;47.946;10.394;2023-08-12T07:26:12;3.28;;;2.42;;
18013;SDS011;9132;47.946;10.394;2023-08-12T07:28:39;2.80;;;2.60;;
18013;SDS011;9132;47.946;10.394;2023-08-12T07:31:05;3.78;;;2.45;;
18013;SDS011;9132;47.946;10.394;2023-08-12T07:33:31;2.70;;;2.50;;
18013;SDS011;9132;47.946;10.394;2023-08-12T07:35:58;3.20;;;2.90;;
18013;SDS011;9132;47.946;10.394;2023-08-12T07:38:24;2.90;;;2.08;;
18013;SDS011;9132;47.946;10.394;2023-08-12T07:40:52;4.35;;;2.72;;
18013;SDS011;9132;47.946;10.394;2023-08-12T07:43:18;3.25;;;2.60;;
18013;SDS011;9132;47.946;10.394;2023-08-12T07:45:44;4.57;;;2.38;;
18013;SDS011;9132;47.946;10.394;2023-08-12T07:48:11;3.45;;;2.60;;
18013;SDS011;9132;47.946;10.394;2023-08-12T07:50:37;4.93;;;2.40;;
18013;SDS011;9132;47.946;10.394;2023-08-12T07:53:03;3.50;;;2.80;;
18013;SDS011;9132;47.946;10.394;2023-08-12T07:55:30;3.78;;;2.40;;
18013;SDS011;9132;47.946;10.394;2023-08-12T07:57:58;3.35;;;2.53;;
18013;SDS011;9132;47.946;10.394;2023-08-12T08:00:24;3.05;;;2.83;;
18013;SDS011;9132;47.946;10.394;2023-08-12T08:02:50;2.60;;;2.40;;
18013;SDS011;9132;47.946;10.394;2023-08-12T08:05:16;2.85;;;2.50;;
18013;SDS011;9132;47.946;10.394;2023-08-12T08:07:43;2.55;;;2.08;;
18013;SDS011;9132;47.946;10.394;2023-08-12T08:10:09;3.65;;;2.70;;
18013;SDS011;9132;47.946;10.394;2023-08-12T08:12:36;2.45;;;2.25;;
18013;SDS011;9132;47.946;10.394;2023-08-12T08:15:04;4.07;;;2.58;;
18013;SDS011;9132;47.946;10.394;2023-08-12T08:17:31;3.13;;;2.70;;
18013;SDS011;9132;47.946;10.394;2023-08-12T08:19:57;3.28;;;2.33;;
18013;SDS011;9132;47.946;10.394;2023-08-12T08:22:24;3.28;;;2.80;;
18013;SDS011;9132;47.946;10.394;2023-08-12T08:24:50;3.35;;;2.45;;
18013;SDS011;9132;47.946;10.394;2023-08-12T08:27:16;3.47;;;2.47;;
18013;SDS011;9132;47.946;10.394;2023-08-12T08:29:43;3.45;;;2.70;;
18013;SDS011;9132;47.946;10.394;2023-08-12T08:32:10;2.97;;;2.70;;
18013;SDS011;9132;47.946;10.394;2023-08-12T08:34:37;3.20;;;2.80;;
18013;SDS011;9132;47.946;10.394;2023-08-12T08:37:03;3.33;;;2.47;;
18013;SDS011;9132;47.946;10.394;2023-08-12T08:39:30;3.17;;;2.33;;
18013;SDS011;9132;47.946;10.394;2023-08-12T08:41:56;2.67;;;2.47;;
18013;SDS011;9132;47.946;10.394;2023-08-12T08:44:24;4.65;;;2.58;;
18013;SDS011;9132;47.946;10.394;2023-08-12T08:46:53;2.53;;;2.33;;
18013;SDS011;9132;47.946;10.394;2023-08-12T08:49:21;3.30;;;2.65;;
18013;SDS011;9132;47.946;10.394;2023-08-12T08:51:48;6.78;;;2.72;;
18013;SDS011;9132;47.946;10.394;2023-08-12T08:54:15;3.30;;;2.35;;
18013;SDS011;9132;47.946;10.394;2023-08-12T08:56:42;4.95;;;2.50;;
18013;SDS011;9132;47.946;10.394;2023-08-12T08:59:08;3.17;;;2.55;;
18013;SDS011;9132;47.946;10.394;2023-08-12T09:01:35;3.00;;;2.75;;
18013;SDS011;9132;47.946;10.394;2023-08-12T09:04:02;3.58;;;2.58;;
18013;SDS011;9132;47.946;10.394;2023-08-12T09:06:30;3.47;;;2.63;;
18013;SDS011;9132;47.946;10.394;2023-08-12T09:08:58;3.97;;;2.53;;
18013;SDS011;9132;47.946;10.394;2023-08-12T09:11:26;2.90;;;2.58;;
18013;SDS011;9132;47.946;10.394;2023-08-12T09:13:52;4.00;;;2.67;;
18013;SDS011;9132;47.946;10.394;2023-08-12T09:16:19;3.58;;;2.50;;
18013;SDS011;9132;47.946;10.394;2023-08-12T09:18:45;2.97;;;2.35;;
18013;SDS011;9132;47.946;10.394;2023-08-12T09:21:11;2.80;;;2.60;;
18013;SDS011;9132;47.946;10.394;2023-08-12T09:23:39;3.05;;;2.83;;
18013;SDS011;9132;47.946;10.394;2023-08-12T09:26:12;2.92;;;2.63;;
18013;SDS011;9132;47.946;10.394;2023-08-12T09:28:40;3.90;;;2.47;;
18013;SDS011;9132;47.946;10.394;2023-08-12T09:31:06;2.70;;;2.50;;
18013;SDS011;9132;47.946;10.394;2023-08-12T09:33:33;2.22;;;2.03;;
18013;SDS011;9132;47.946;10.394;2023-08-12T09:36:04;4.20;;;2.60;;
18013;SDS011;9132;47.946;10.394;2023-08-12T09:38:30;3.20;;;2.33;;
18013;SDS011;9132;47.946;10.394;2023-08-12T09:40:58;2.97;;;1.95;;
18013;SDS011;9132;47.946;10.394;2023-08-12T09:43:26;3.15;;;2.20;;
18013;SDS011;9132;47.946;10.394;2023-08-12T09:45:55;2.55;;;2.35;;
18013;SDS011;9132;47.946;10.394;2023-08-12T09:48:21;4.13;;;2.22;;
18013;SDS011;9132;47.946;10.394;2023-08-12T09:50:48;2.60;;;2.40;;
18013;SDS011;9132;47.946;10.394;2023-08-12T09:53:15;2.55;;;2.35;;
18013;SDS011;9132;47.946;10.394;2023-08-12T09:55:41;2.75;;;2.55;;
18013;SDS011;9132;47.946;10.394;2023-08-12T09:58:09;2.78;;;2.53;;
18013;SDS011;9132;47.946;10.394;2023-08-12T10:00:36;2.80;;;2.60;;
18013;SDS011;9132;47.946;10.394;2023-08-12T10:03:03;2.70;;;2.50;;
18013;SDS011;9132;47.946;10.394;2023-08-12T10:05:31;3.33;;;2.70;;
18013;SDS011;9132;47.946;10.394;2023-08-12T10:07:57;4.03;;;2.70;;
18013;SDS011;9132;47.946;10.394;2023-08-12T10:10:26;2.95;;;2.65;;
18013;SDS011;9132;47.946;10.394;2023-08-12T10:12:53;4.35;;;2.83;;
18013;SDS011;9132;47.946;10.394;2023-08-12T10:15:21;2.80;;;2.60;;
18013;SDS011;9132;47.946;10.394;2023-08-12T10:17:48;4.45;;;2.88;;
18013;SDS011;9132;47.946;10.394;2023-08-12T10:20:17;3.17;;;2.80;;
18013;SDS011;9132;47.946;10.394;2023-08-12T10:22:45;3.60;;;2.53;;
18013;SDS011;9132;47.946;10.394;2023-08-12T10:25:13;3.15;;;2.78;;
18013;SDS011;9132;47.946;10.394;2023-08-12T10:27:39;11.13;;;5.57;;
18013;SDS011;9132;47.946;10.394;2023-08-12T10:30:06;7.75;;;5.93;;
18013;SDS011;9132;47.946;10.394;2023-08-12T10:32:35;5.85;;;4.32;;
18013;SDS011;9132;47.946;10.394;2023-08-12T10:35:02;6.47;;;4.28;;
18013;SDS011;9132;47.946;10.394;2023-08-12T10:37:31;3.40;;;3.10;;
18013;SDS011;9132;47.946;10.394;2023-08-12T10:39:57;3.63;;;2.72;;
18013;SDS011;9132;47.946;10.394;2023-08-12T10:45:13;3.33;;;2.90;;
18013;SDS011;9132;47.946;10.394;2023-08-12T10:47:41;3.97;;;3.65;;
18013;SDS011;9132;47.946;10.394;2023-08-12T10:50:18;6.43;;;5.80;;
18013;SDS011;9132;47.946;10.394;2023-08-12T10:52:44;5.50;;;4.40;;
18013;SDS011;9132;47.946;10.394;2023-08-12T10:55:17;4.22;;;3.00;;
18013;SDS011;9132;47.946;10.394;2023-08-12T10:57:43;5.07;;;3.15;;
18013;SDS011;9132;47.946;10.394;2023-08-12T11:00:10;5.53;;;4.20;;
18013;SDS011;9132;47.946;10.394;2023-08-12T11:02:38;7.03;;;4.30;;
18013;SDS011;9132;47.946;10.394;2023-08-12T11:05:08;3.28;;;2.97;;
18013;SDS011;9132;47.946;10.394;2023-08-12T11:07:37;3.85;;;3.50;;
18013;SDS011;9132;47.946;10.394;2023-08-12T11:10:04;5.38;;;3.35;;
18013;SDS011;9132;47.946;10.394;2023-08-12T11:12:32;4.57;;;3.15;;
18013;SDS011;9132;47.946;10.394;2023-08-12T11:14:59;4.03;;;3.63;;
18013;SDS011;9132;47.946;10.394;2023-08-12T11:17:31;3.45;;;3.15;;
18013;SDS011;9132;47.946;10.394;2023-08-12T11:19:58;3.47;;;3.17;;
18013;SDS011;9132;47.946;10.394;2023-08-12T11:22:26;3.42;;;3.03;;
18013;SDS011;9132;47.946;10.394;2023-08-12T11:24:52;4.30;;;3.25;;
18013;SDS011;9132;47.946;10.394;2023-08-12T11:27:19;4.40;;;3.05;;
18013;SDS011;9132;47.946;10.394;2023-08-12T11:29:45;3.58;;;3.08;;
18013;SDS011;9132;47.946;10.394;2023-08-12T11:32:12;3.22;;;2.97;;
18013;SDS011;9132;47.946;10.394;2023-08-12T11:34:38;4.80;;;3.53;;
18013;SDS011;9132;47.946;10.394;2023-08-12T11:37:05;3.35;;;3.03;;
18013;SDS011;9132;47.946;10.394;2023-08-12T11:39:33;4.10;;;3.45;;
18013;SDS011;9132;47.946;10.394;2023-08-12T11:42:00;4.72;;;3.15;;
18013;SDS011;9132;47.946;10.394;2023-08-12T11:44:26;5.00;;;3.33;;
18013;SDS011;9132;47.946;10.394;2023-08-12T11:46:52;3.03;;;2.83;;
18013;SDS011;9132;47.946;10.394;2023-08-12T11:49:19;4.25;;;3.15;;
18013;SDS011;9132;47.946;10.394;2023-08-12T11:51:46;4.47;;;3.05;;
18013;SDS011;9132;47.946;10.394;2023-08-12T11:54:13;4.25;;;3.05;;
18013;SDS011;9132;47.946;10.394;2023-08-12T11:56:41;5.28;;;3.00;;
18013;SDS011;9132;47.946;10.394;2023-08-12T11:59:07;2.80;;;2.33;;
18013;SDS011;9132;47.946;10.394;2023-08-12T12:01:34;3.67;;;2.78;;
18013;SDS011;9132;47.946;10.394;2023-08-12T12:04:00;2.90;;;2.58;;
18013;SDS011;9132;47.946;10.394;2023-08-12T12:06:28;3.30;;;2.78;;
18013;SDS011;9132;47.946;10.394;2023-08-12T12:08:55;7.15;;;3.08;;
18013;SDS011;9132;47.946;10.394;2023-08-12T12:11:21;4.85;;;2.90;;
18013;SDS011;9132;47.946;10.394;2023-08-12T12:13:50;3.60;;;2.70;;
18013;SDS011;9132;47.946;10.394;2023-08-12T12:16:16;5.30;;;2.70;;
18013;SDS011;9132;47.946;10.394;2023-08-12T12:18:43;4.78;;;3.15;;
18013;SDS011;9132;47.946;10.394;2023-08-12T12:21:09;3.10;;;2.80;;
18013;SDS011;9132;47.946;10.394;2023-08-12T12:23:36;3.90;;;3.00;;
18013;SDS011;9132;47.946;10.394;2023-08-12T12:26:03;3.67;;;3.00;;
18013;SDS011;9132;47.946;10.394;2023-08-12T12:28:30;4.45;;;2.80;;
18013;SDS011;9132;47.946;10.394;2023-08-12T12:30:57;3.10;;;2.83;;
18013;SDS011;9132;47.946;10.394;2023-08-12T12:33:24;3.70;;;2.90;;
18013;SDS011;9132;47.946;10.394;2023-08-12T12:35:50;3.50;;;2.85;;
18013;SDS011;9132;47.946;10.394;2023-08-12T12:38:16;2.90;;;2.60;;
18013;SDS011;9132;47.946;10.394;2023-08-12T12:40:43;3.28;;;3.00;;
18013;SDS011;9132;47.946;10.394;2023-08-12T12:43:09;5.82;;;3.13;;
18013;SDS011;9132;47.946;10.394;2023-08-12T12:45:35;3.70;;;2.83;;
18013;SDS011;9132;47.946;10.394;2023-08-12T12:48:03;5.25;;;2.75;;
18013;SDS011;9132;47.946;10.394;2023-08-12T12:50:31;3.67;;;3.05;;
18013;SDS011;9132;47.946;10.394;2023-08-12T12:52:57;4.28;;;3.20;;
18013;SDS011;9132;47.946;10.394;2023-08-12T12:55:23;11.80;;;3.58;;
18013;SDS011;9132;47.946;10.394;2023-08-12T12:57:50;3.85;;;2.90;;
18013;SDS011;9132;47.946;10.394;2023-08-12T13:00:16;3.95;;;3.05;;
18013;SDS011;9132;47.946;10.394;2023-08-12T13:02:42;4.85;;;3.03;;
18013;SDS011;9132;47.946;10.394;2023-08-12T13:05:10;3.38;;;2.90;;
18013;SDS011;9132;47.946;10.394;2023-08-12T13:07:37;3.95;;;2.42;;
18013;SDS011;9132;47.946;10.394;2023-08-12T13:10:03;3.30;;;2.05;;
18013;SDS011;9132;47.946;10.394;2023-08-12T13:12:30;2.63;;;2.08;;
18013;SDS011;9132;47.946;10.394;2023-08-12T13:14:56;2.30;;;2.10;;
18013;SDS011;9132;47.946;10.394;2023-08-12T13:17:22;3.38;;;2.22;;
18013;SDS011;9132;47.946;10.394;2023-08-12T13:19:49;3.33;;;2.30;;
18013;SDS011;9132;47.946;10.394;2023-08-12T13:22:16;2.78;;;2.33;;
18013;SDS011;9132;47.946;10.394;2023-08-12T13:24:43;2.20;;;2.00;;
18013;SDS011;9132;47.946;10.394;2023-08-12T13:27:09;2.40;;;2.13;;
18013;SDS011;9132;47.946;10.394;2023-08-12T13:29:35;6.05;;;2.70;;
18013;SDS011;9132;47.946;10.394;2023-08-12T13:32:02;3.45;;;2.40;;
18013;SDS011;9132;47.946;10.394;2023-08-12T13:34:28;4.85;;;2.42;;
18013;SDS011;9132;47.946;10.394;2023-08-12T13:36:54;3.80;;;2.50;;
18013;SDS011;9132;47.946;10.394;2023-08-12T13:39:22;3.72;;;2.42;;
18013;SDS011;9132;47.946;10.394;2023-08-12T13:41:48;4.45;;;2.67;;
18013;SDS011;9132;47.946;10.394;2023-08-12T13:44:15;3.83;;;2.53;;
18013;SDS011;9132;47.946;10.394;2023-08-12T13:46:41;2.97;;;2.45;;
18013;SDS011;9132;47.946;10.394;2023-08-12T13:49:07;4.78;;;2.55;;
18013;SDS011;9132;47.946;10.394;2023-08-12T13:51:34;4.50;;;2.78;;
18013;SDS011;9132;47.946;10.394;2023-08-12T13:54:00;4.57;;;2.97;;
18013;SDS011;9132;47.946;10.394;2023-08-12T13:56:28;4.57;;;3.13;;
18013;SDS011;9132;47.946;10.394;2023-08-12T13:58:54;3.70;;;2.90;;
18013;SDS011;9132;47.946;10.394;2023-08-12T14:01:21;4.85;;;3.00;;
18013;SDS011;9132;47.946;10.394;2023-08-12T14:03:47;3.83;;;3.00;;
18013;SDS011;9132;47.946;10.394;2023-08-12T14:06:13;3.22;;;2.65;;
18013;SDS011;9132;47.946;10.394;2023-08-12T14:08:40;4.07;;;2.55;;
18013;SDS011;9132;47.946;10.394;2023-08-12T14:11:06;3.60;;;2.67;;
18013;SDS011;9132;47.946;10.394;2023-08-12T14:13:34;3.33;;;2.60;;
18013;SDS011;9132;47.946;10.394;2023-08-12T14:16:00;4.78;;;2.67;;
18013;SDS011;9132;47.946;10.394;2023-08-12T14:18:26;3.28;;;2.70;;
18013;SDS011;9132;47.946;10.394;2023-08-12T14:20:53;3.70;;;2.38;;
18013;SDS011;9132;47.946;10.394;2023-08-12T14:23:19;4.20;;;2.63;;
18013;SDS011;9132;47.946;10.394;2023-08-12T14:25:45;5.55;;;3.13;;
18013;SDS011;9132;47.946;10.394;2023-08-12T14:28:12;4.15;;;2.88;;
18013;SDS011;9132;47.946;10.394;2023-08-12T14:30:39;3.55;;;2.60;;
18013;SDS011;9132;47.946;10.394;2023-08-12T14:33:06;6.15;;;2.72;;
18013;SDS011;9132;47.946;10.394;2023-08-12T14:35:33;4.95;;;2.75;;
18013;SDS011;9132;47.946;10.394;2023-08-12T14:38:00;3.17;;;2.80;;
18013;SDS011;9132;47.946;10.394;2023-08-12T14:40:27;4.47;;;3.03;;
18013;SDS011;9132;47.946;10.394;2023-08-12T14:42:53;3.53;;;2.72;;
18013;SDS011;9132;47.946;10.394;2023-08-12T14:45:20;5.40;;;2.42;;
18013;SDS011;9132;47.946;10.394;2023-08-12T14:47:47;2.60;;;2.40;;
18013;SDS011;9132;47.946;10.394;2023-08-12T14:50:14;4.18;;;2.70;;